createdAt,value
2024-01-26T00:02:07.755Z,32.10
2024-01-26T00:04:34.634Z,39.42
2024-01-26T00:07:01.498Z,35.40
2024-01-26T00:09:28.422Z,29.73
2024-01-26T00:11:55.140Z,32.83
2024-01-26T00:14:21.845Z,30.13
2024-01-26T00:16:48.566Z,30.25
2024-01-26T00:19:15.287Z,34.07
2024-01-26T00:21:42.041Z,32.40
2024-01-26T00:24:08.773Z,30.27
2024-01-26T00:26:35.518Z,32.65
2024-01-26T00:29:02.243Z,37.78
2024-01-26T00:31:28.944Z,39.73
2024-01-26T00:33:55.775Z,30.52
2024-01-26T00:36:22.551Z,33.60
2024-01-26T00:38:49.202Z,29.45
2024-01-26T00:41:15.929Z,31.40
2024-01-26T00:43:42.619Z,27.93
2024-01-26T00:46:09.385Z,28.98
2024-01-26T00:48:37.907Z,32.38
2024-01-26T00:51:05.825Z,29.30
2024-01-26T00:53:33.431Z,24.45
2024-01-26T00:56:00.140Z,22.70
2024-01-26T00:58:26.852Z,25.58
2024-01-26T01:00:53.645Z,24.17
2024-01-26T01:03:20.712Z,24.48
2024-01-26T01:05:47.716Z,26.77
2024-01-26T01:08:14.489Z,22.13
2024-01-26T01:10:41.209Z,22.80
2024-01-26T01:13:11.415Z,22.10
2024-01-26T01:15:41.088Z,20.77
2024-01-26T01:18:07.949Z,18.52
2024-01-26T01:20:34.897Z,20.37
2024-01-26T01:23:01.699Z,18.42
2024-01-26T01:25:28.420Z,20.80
2024-01-26T01:27:55.190Z,17.08
2024-01-26T01:30:21.993Z,21.17
2024-01-26T01:32:48.844Z,17.73
2024-01-26T01:35:15.900Z,17.95
2024-01-26T01:37:42.627Z,17.25
2024-01-26T01:40:09.840Z,21.10
2024-01-26T01:42:36.820Z,19.30
2024-01-26T01:45:14.219Z,17.67
2024-01-26T01:47:42.649Z,15.15
2024-01-26T01:50:10.083Z,20.23
2024-01-26T01:52:45.603Z,17.83
2024-01-26T01:55:16.074Z,20.13
2024-01-26T01:57:45.640Z,20.20
2024-01-26T02:00:17.251Z,18.35
2024-01-26T02:02:48.157Z,17.17
2024-01-26T02:05:16.442Z,16.88
2024-01-26T02:07:47.781Z,15.43
2024-01-26T02:10:14.440Z,15.57
2024-01-26T02:12:41.093Z,16.40
2024-01-26T02:15:09.442Z,15.27
2024-01-26T02:17:37.471Z,13.90
2024-01-26T02:20:05.351Z,15.20
2024-01-26T02:22:32.487Z,14.97
2024-01-26T02:24:59.325Z,16.50
2024-01-26T02:27:26.318Z,11.98
2024-01-26T02:29:53.054Z,11.57
2024-01-26T02:32:19.720Z,13.20
2024-01-26T02:34:46.618Z,11.07
2024-01-26T02:37:13.416Z,12.68
2024-01-26T02:39:40.105Z,9.60
2024-01-26T02:42:07.146Z,13.32
2024-01-26T02:44:34.846Z,11.13
2024-01-26T02:47:01.779Z,11.37
2024-01-26T02:49:29.718Z,12.27
2024-01-26T02:51:56.534Z,11.65
2024-01-26T02:54:24.447Z,12.07
2024-01-26T02:56:51.691Z,17.33
2024-01-26T02:59:18.505Z,17.13
2024-01-26T03:01:45.185Z,14.48
2024-01-26T03:04:12.033Z,13.18
2024-01-26T03:06:38.819Z,16.30
2024-01-26T03:09:05.576Z,17.13
2024-01-26T03:11:40.009Z,15.87
2024-01-26T03:14:07.888Z,18.50
2024-01-26T03:16:35.245Z,19.77
2024-01-26T03:19:02.704Z,18.50
2024-01-26T03:21:29.500Z,17.90
2024-01-26T03:23:56.323Z,18.00
2024-01-26T03:26:23.051Z,17.65
2024-01-26T03:28:50.067Z,20.60
2024-01-26T03:31:16.850Z,24.05
2024-01-26T03:33:45.413Z,16.90
2024-01-26T03:36:15.143Z,20.07
2024-01-26T03:38:42.016Z,18.00
2024-01-26T03:41:08.767Z,19.63
2024-01-26T03:43:36.330Z,16.80
2024-01-26T03:46:09.684Z,15.48
2024-01-26T03:48:36.454Z,14.73
2024-01-26T03:51:04.093Z,17.45
2024-01-26T03:53:30.879Z,13.27
2024-01-26T03:55:57.545Z,24.52
2024-01-26T03:58:24.328Z,15.10
2024-01-26T04:00:51.117Z,15.30
2024-01-26T04:03:17.934Z,14.88
2024-01-26T04:05:44.862Z,15.35
2024-01-26T04:08:13.237Z,14.10
2024-01-26T04:10:40.082Z,14.57
2024-01-26T04:13:07.624Z,15.37
2024-01-26T04:15:34.479Z,14.82
2024-01-26T04:18:01.520Z,17.33
2024-01-26T04:20:28.374Z,16.90
2024-01-26T04:22:55.101Z,16.67
2024-01-26T04:25:21.731Z,14.60
2024-01-26T04:27:48.397Z,19.42
2024-01-26T04:30:15.891Z,12.15
2024-01-26T04:32:42.950Z,18.38
2024-01-26T04:35:12.814Z,15.30
2024-01-26T04:37:39.525Z,17.03
2024-01-26T04:40:08.424Z,19.10
2024-01-26T04:42:36.352Z,16.35
2024-01-26T04:45:03.607Z,16.73
2024-01-26T04:47:30.565Z,17.38
2024-01-26T04:49:57.376Z,17.10
2024-01-26T04:52:24.118Z,17.25
2024-01-26T04:54:50.901Z,19.50
2024-01-26T04:57:17.659Z,22.08
2024-01-26T04:59:44.413Z,17.48
2024-01-26T05:02:11.837Z,16.23
2024-01-26T05:04:38.558Z,16.60
2024-01-26T05:07:05.395Z,18.08
2024-01-26T05:09:32.171Z,18.58
2024-01-26T05:11:58.842Z,17.95
2024-01-26T05:14:28.390Z,16.47
2024-01-26T05:16:55.106Z,17.88
2024-01-26T05:19:21.932Z,16.40
2024-01-26T05:21:48.615Z,20.65
2024-01-26T05:24:15.543Z,14.93
2024-01-26T05:26:42.397Z,18.67
2024-01-26T05:29:09.128Z,16.58
2024-01-26T05:31:36.359Z,15.82
2024-01-26T05:34:03.319Z,17.45
2024-01-26T05:36:30.106Z,18.50
2024-01-26T05:38:57.052Z,15.67
2024-01-26T05:41:24.145Z,23.33
2024-01-26T05:43:51.732Z,16.13
2024-01-26T05:46:18.610Z,16.77
2024-01-26T05:48:46.127Z,19.75
2024-01-26T05:51:14.305Z,14.50
2024-01-26T05:53:41.314Z,18.42
2024-01-26T05:56:08.300Z,14.27
2024-01-26T05:58:35.004Z,14.63
2024-01-26T06:01:01.923Z,12.82
2024-01-26T06:03:28.927Z,11.20
2024-01-26T06:05:55.929Z,14.13
2024-01-26T06:08:22.714Z,14.30
2024-01-26T06:10:49.645Z,15.38
2024-01-26T06:13:16.470Z,13.25
2024-01-26T06:15:43.219Z,10.17
2024-01-26T06:18:10.423Z,11.70
2024-01-26T06:20:37.335Z,10.90
2024-01-26T06:23:04.304Z,10.35
2024-01-26T06:25:31.124Z,10.00
2024-01-26T06:27:58.031Z,8.93
2024-01-26T06:30:24.716Z,15.98
2024-01-26T06:32:52.791Z,7.03
2024-01-26T06:35:19.640Z,10.98
2024-01-26T06:37:46.512Z,9.70
2024-01-26T06:40:13.905Z,13.63
2024-01-26T06:42:40.996Z,12.90
2024-01-26T06:45:12.180Z,13.23
2024-01-26T06:47:39.248Z,10.07
2024-01-26T06:50:08.968Z,10.13
2024-01-26T06:52:36.841Z,9.73
2024-01-26T06:55:04.066Z,8.57
2024-01-26T06:57:30.712Z,9.98
2024-01-26T06:59:57.370Z,7.50
2024-01-26T07:02:23.989Z,9.65
2024-01-26T07:04:50.607Z,9.57
2024-01-26T07:07:17.276Z,10.15
2024-01-26T07:09:43.943Z,10.30
2024-01-26T07:12:10.736Z,11.80
2024-01-26T07:14:37.475Z,12.40
2024-01-26T07:17:04.374Z,9.40
2024-01-26T07:19:31.173Z,12.77
2024-01-26T07:21:57.920Z,10.73
2024-01-26T07:24:24.633Z,9.20
2024-01-26T07:26:51.408Z,10.52
2024-01-26T07:29:18.247Z,10.53
2024-01-26T07:31:46.272Z,10.60
2024-01-26T07:34:13.475Z,10.15
2024-01-26T07:36:40.738Z,8.27
2024-01-26T07:39:08.118Z,11.35
2024-01-26T07:41:35.092Z,10.23
2024-01-26T07:44:01.768Z,13.90
2024-01-26T07:46:28.377Z,10.88
2024-01-26T07:48:55.395Z,14.02
2024-01-26T07:51:22.264Z,13.30
2024-01-26T07:53:49.023Z,10.57
2024-01-26T07:56:15.937Z,12.77
2024-01-26T07:58:42.726Z,11.25
2024-01-26T08:01:11.836Z,11.45
2024-01-26T08:03:38.894Z,12.25
2024-01-26T08:06:06.383Z,15.33
2024-01-26T08:08:33.151Z,11.43
2024-01-26T08:11:01.123Z,12.65
2024-01-26T08:13:28.029Z,12.50
2024-01-26T08:15:55.855Z,10.30
2024-01-26T08:18:23.353Z,11.83
2024-01-26T08:20:51.139Z,11.48
2024-01-26T08:23:17.915Z,12.20
2024-01-26T08:25:45.548Z,12.55
2024-01-26T08:28:12.891Z,16.65
2024-01-26T08:30:39.591Z,12.00
2024-01-26T08:33:06.485Z,14.25
2024-01-26T08:35:33.735Z,16.65
2024-01-26T08:38:00.604Z,15.25
2024-01-26T08:40:29.227Z,14.95
2024-01-26T08:42:55.908Z,5.73
2024-01-26T08:45:22.658Z,8.93
2024-01-26T08:47:50.014Z,8.00
2024-01-26T08:50:16.955Z,10.68
2024-01-26T08:52:43.753Z,8.35
2024-01-26T08:55:10.405Z,10.87
2024-01-26T08:57:37.142Z,6.45
2024-01-26T09:00:10.076Z,6.93
2024-01-26T09:02:37.226Z,8.07
2024-01-26T09:05:04.151Z,11.18
2024-01-26T09:07:30.894Z,9.20
2024-01-26T09:09:57.547Z,6.75
2024-01-26T09:12:24.305Z,5.90
2024-01-26T09:20:08.656Z,12.97
2024-01-26T09:22:35.821Z,6.65
2024-01-26T09:25:04.863Z,7.57
2024-01-26T09:27:32.020Z,8.73
2024-01-26T09:29:58.900Z,9.85
2024-01-26T09:32:25.911Z,11.10
2024-01-26T09:34:52.871Z,4.78
2024-01-26T09:37:21.736Z,8.63
2024-01-26T09:39:48.894Z,7.47
2024-01-26T09:42:20.591Z,9.65
2024-01-26T09:47:53.638Z,13.25
2024-01-26T09:50:23.229Z,11.02
2024-01-26T09:52:51.739Z,11.35
2024-01-26T09:55:20.828Z,6.63
2024-01-26T09:57:49.127Z,10.60
2024-01-26T10:00:16.432Z,8.05
2024-01-26T10:02:44.004Z,8.30
2024-01-26T10:05:21.797Z,10.43
2024-01-26T10:10:51.159Z,13.77
2024-01-26T10:13:33.450Z,12.95
2024-01-26T10:16:37.294Z,12.60
2024-01-26T10:19:05.462Z,14.68
2024-01-26T10:21:32.463Z,13.20
2024-01-26T10:23:59.681Z,13.53
2024-01-26T10:26:29.500Z,10.98
2024-01-26T10:28:58.010Z,13.27
2024-01-26T10:31:26.795Z,14.10
2024-01-26T10:33:56.100Z,13.27
2024-01-26T10:36:26.921Z,14.47
2024-01-26T10:38:56.373Z,16.83
2024-01-26T10:41:28.068Z,14.30
2024-01-26T10:44:02.993Z,15.52
2024-01-26T10:46:35.590Z,12.05
2024-01-26T10:49:11.985Z,11.73
2024-01-26T10:51:57.767Z,12.60
2024-01-26T10:54:26.610Z,11.38
2024-01-26T10:56:53.618Z,13.13
2024-01-26T10:59:21.610Z,14.65
2024-01-26T11:01:58.292Z,9.77
2024-01-26T11:04:31.742Z,11.45
2024-01-26T11:06:59.423Z,10.63
2024-01-26T11:13:28.546Z,11.90
2024-01-26T11:16:07.203Z,12.10
2024-01-26T11:22:32.322Z,15.00
2024-01-26T11:24:59.832Z,13.80
2024-01-26T11:27:27.027Z,11.57
2024-01-26T11:29:53.833Z,13.90
2024-01-26T11:32:21.095Z,14.90
2024-01-26T11:35:03.809Z,16.67
2024-01-26T11:37:31.622Z,16.30
2024-01-26T11:39:58.646Z,18.23
2024-01-26T11:42:26.091Z,18.97
2024-01-26T11:45:09.665Z,14.30
2024-01-26T11:47:41.306Z,19.10
2024-01-26T11:50:09.522Z,14.45
2024-01-26T11:52:37.165Z,15.10
2024-01-26T11:55:22.103Z,13.73
2024-01-26T11:57:52.744Z,19.60
2024-01-26T12:00:20.365Z,20.55
2024-01-26T12:02:47.439Z,19.55
2024-01-26T12:05:16.443Z,18.13
2024-01-26T12:07:43.447Z,22.23
2024-01-26T12:10:14.610Z,21.10
2024-01-26T12:12:48.320Z,17.58
2024-01-26T12:15:15.476Z,21.35
2024-01-26T12:17:42.504Z,20.23
2024-01-26T12:20:11.205Z,19.63
2024-01-26T12:22:38.602Z,15.93
2024-01-26T12:25:08.284Z,16.35
2024-01-26T12:27:36.002Z,15.05
2024-01-26T12:30:03.260Z,17.70
2024-01-26T12:32:30.649Z,14.43
2024-01-26T12:34:59.341Z,25.67
2024-01-26T12:37:28.754Z,17.35
2024-01-26T12:39:55.700Z,17.55
2024-01-26T12:42:22.616Z,15.93
2024-01-26T12:44:49.445Z,17.17
2024-01-26T12:47:16.223Z,15.65
2024-01-26T12:49:43.038Z,18.85
2024-01-26T12:52:11.284Z,16.25
2024-01-26T12:54:38.148Z,17.33
2024-01-26T12:57:05.316Z,16.33
2024-01-26T12:59:32.132Z,14.55
2024-01-26T13:01:58.994Z,14.23
2024-01-26T13:04:26.398Z,16.92
2024-01-26T13:06:53.413Z,10.65
2024-01-26T13:09:21.284Z,13.10
2024-01-26T13:11:48.303Z,12.85
2024-01-26T13:14:15.230Z,15.38
2024-01-26T13:16:42.160Z,10.85
2024-01-26T13:19:09.152Z,15.15
2024-01-26T13:21:36.279Z,13.30
2024-01-26T13:24:03.352Z,17.10
2024-01-26T13:26:30.263Z,17.05
2024-01-26T13:28:57.127Z,17.75
2024-01-26T13:31:26.561Z,19.88
2024-01-26T13:33:53.565Z,17.10
2024-01-26T13:36:20.388Z,20.65
2024-01-26T13:38:47.568Z,12.23
2024-01-26T13:41:15.139Z,15.63
2024-01-26T13:43:44.194Z,17.30
2024-01-26T13:46:11.314Z,19.80
2024-01-26T13:48:40.381Z,16.92
2024-01-26T13:51:19.393Z,19.40
2024-01-26T13:53:46.304Z,23.50
2024-01-26T13:56:14.168Z,12.02
2024-01-26T13:58:41.016Z,22.80
2024-01-26T14:01:08.768Z,17.33
2024-01-26T14:03:36.069Z,19.73
2024-01-26T14:06:03.170Z,15.27
2024-01-26T14:08:30.732Z,17.58
2024-01-26T14:10:58.271Z,21.00
2024-01-26T14:13:25.134Z,21.02
2024-01-26T14:15:52.062Z,15.05
2024-01-26T14:18:20.037Z,21.27
2024-01-26T14:20:48.010Z,15.23
2024-01-26T14:23:15.093Z,16.70
2024-01-26T14:25:42.031Z,17.55
2024-01-26T14:28:09.521Z,15.77
2024-01-26T14:30:36.525Z,16.70
2024-01-26T14:33:03.696Z,15.32
2024-01-26T14:35:30.690Z,13.43
2024-01-26T14:37:57.541Z,12.73
2024-01-26T14:40:24.522Z,17.92
2024-01-26T14:42:51.441Z,17.65
2024-01-26T14:45:18.466Z,18.02
2024-01-26T14:47:47.358Z,20.30
2024-01-26T14:50:15.404Z,18.08
2024-01-26T14:52:42.454Z,23.10
2024-01-26T14:55:10.428Z,14.25
2024-01-26T14:57:39.575Z,20.98
2024-01-26T15:00:08.923Z,17.03
2024-01-26T15:02:39.869Z,22.88
2024-01-26T15:05:23.794Z,18.00
2024-01-26T15:07:52.989Z,19.02
2024-01-26T15:10:22.532Z,18.50
2024-01-26T15:12:49.550Z,13.20
2024-01-26T15:15:19.800Z,11.88
2024-01-26T15:17:56.966Z,12.15
2024-01-26T15:20:23.860Z,19.45
2024-01-26T15:22:51.635Z,16.33
2024-01-26T15:25:18.824Z,17.73
2024-01-26T15:27:45.636Z,20.50
2024-01-26T15:30:14.687Z,17.23
2024-01-26T15:32:43.924Z,21.15
2024-01-26T15:35:14.759Z,21.10
2024-01-26T15:37:42.605Z,17.87
2024-01-26T15:40:14.994Z,17.08
2024-01-26T15:42:41.754Z,14.32
2024-01-26T15:45:08.894Z,15.82
2024-01-26T15:47:35.846Z,18.60
2024-01-26T15:50:02.739Z,22.87
2024-01-26T15:52:34.535Z,22.45
2024-01-26T15:55:04.667Z,23.88
2024-01-26T15:57:31.441Z,19.17
2024-01-26T15:59:58.325Z,16.80
2024-01-26T16:02:25.465Z,15.10
2024-01-26T16:04:55.212Z,23.02
2024-01-26T16:07:22.111Z,14.20
2024-01-26T16:09:48.926Z,16.25
2024-01-26T16:12:15.595Z,18.30
2024-01-26T16:14:44.249Z,20.27
2024-01-26T16:17:12.657Z,13.82
2024-01-26T16:19:40.115Z,26.45
2024-01-26T16:22:06.846Z,19.20
2024-01-26T16:24:33.522Z,20.38
2024-01-26T16:27:00.437Z,18.63
2024-01-26T16:29:27.127Z,13.63
2024-01-26T16:31:54.022Z,17.20
2024-01-26T16:34:20.832Z,19.50
2024-01-26T16:36:47.622Z,15.98
2024-01-26T16:39:19.156Z,21.73
2024-01-26T16:41:52.790Z,21.77
2024-01-26T16:44:19.453Z,21.90
2024-01-26T16:46:46.300Z,19.10
2024-01-26T16:49:15.240Z,23.58
2024-01-26T16:51:42.213Z,21.67
2024-01-26T16:54:09.125Z,23.92
2024-01-26T16:56:36.199Z,21.20
2024-01-26T16:59:02.863Z,19.83
2024-01-26T17:01:32.377Z,28.30
2024-01-26T17:04:01.194Z,20.80
2024-01-26T17:06:28.185Z,24.20
2024-01-26T17:08:55.017Z,19.00
2024-01-26T17:11:21.914Z,23.85
2024-01-26T17:13:48.625Z,20.45
2024-01-26T17:16:15.234Z,22.00
2024-01-26T17:18:42.118Z,17.73
2024-01-26T17:21:09.116Z,25.08
2024-01-26T17:23:37.110Z,23.23
2024-01-26T17:26:04.375Z,19.25
2024-01-26T17:28:31.038Z,20.80
2024-01-26T17:30:57.688Z,21.20
2024-01-26T17:33:24.610Z,20.65
2024-01-26T17:35:51.469Z,26.75
2024-01-26T17:38:18.581Z,26.33
2024-01-26T17:40:45.309Z,21.93
2024-01-26T17:43:12.617Z,20.42
2024-01-26T17:45:39.435Z,25.83
2024-01-26T17:48:06.918Z,22.52
2024-01-26T17:50:33.725Z,18.33
2024-01-26T17:53:00.412Z,21.27
2024-01-26T17:55:32.348Z,16.52
2024-01-26T17:57:59.117Z,27.25
2024-01-26T18:00:25.992Z,17.77
2024-01-26T18:02:53.216Z,25.65
2024-01-26T18:05:22.298Z,21.73
2024-01-26T18:07:49.622Z,17.52
2024-01-26T18:10:16.838Z,18.33
2024-01-26T18:12:44.085Z,24.05
2024-01-26T18:15:11.301Z,19.38
2024-01-26T18:17:38.069Z,22.63
2024-01-26T18:20:06.988Z,22.80
2024-01-26T18:22:35.829Z,24.58
2024-01-26T18:25:03.337Z,16.63
2024-01-26T18:27:30.068Z,25.05
2024-01-26T18:29:56.761Z,22.93
2024-01-26T18:32:23.447Z,22.73
2024-01-26T18:34:50.341Z,23.45
2024-01-26T18:37:17.245Z,25.73
2024-01-26T18:39:45.709Z,23.88
2024-01-26T18:42:12.493Z,23.27
2024-01-26T18:44:39.157Z,26.48
2024-01-26T18:47:05.898Z,19.52
2024-01-26T18:49:34.507Z,20.00
2024-01-26T18:52:01.315Z,21.25
2024-01-26T18:54:28.070Z,21.93
2024-01-26T18:56:54.806Z,14.82
2024-01-26T18:59:23.119Z,18.58
2024-01-26T19:01:56.486Z,16.42
2024-01-26T19:04:23.608Z,17.77
2024-01-26T19:06:50.774Z,19.30
2024-01-26T19:09:17.527Z,21.63
2024-01-26T19:11:45.558Z,18.90
2024-01-26T19:14:12.480Z,20.38
2024-01-26T19:16:39.476Z,13.27
2024-01-26T19:19:06.873Z,18.03
2024-01-26T19:21:33.652Z,17.08
2024-01-26T19:24:00.397Z,18.98
2024-01-26T19:26:27.168Z,25.95
2024-01-26T19:28:54.573Z,22.02
2024-01-26T19:31:23.395Z,22.17
2024-01-26T19:33:50.284Z,18.35
2024-01-26T19:36:17.236Z,29.75
2024-01-26T19:38:44.010Z,17.13
2024-01-26T19:41:10.930Z,16.90
2024-01-26T19:43:37.793Z,20.90
2024-01-26T19:46:04.598Z,17.90
2024-01-26T19:48:31.377Z,13.48
2024-01-26T19:50:58.140Z,22.55
2024-01-26T19:53:27.545Z,20.92
2024-01-26T19:55:54.250Z,19.63
2024-01-26T19:58:20.899Z,20.95
2024-01-26T20:00:47.649Z,13.13
2024-01-26T20:03:14.779Z,16.10
2024-01-26T20:05:41.784Z,23.38
2024-01-26T20:08:08.487Z,22.63
2024-01-26T20:10:35.194Z,18.58
2024-01-26T20:13:01.854Z,24.92
2024-01-26T20:15:28.637Z,19.38
2024-01-26T20:17:55.580Z,24.73
2024-01-26T20:20:22.753Z,23.07
2024-01-26T20:22:49.886Z,20.38
2024-01-26T20:25:16.740Z,18.50
2024-01-26T20:27:43.453Z,19.05
2024-01-26T20:30:10.656Z,24.58
2024-01-26T20:32:37.660Z,19.33
2024-01-26T20:35:04.866Z,14.82
2024-01-26T20:37:31.635Z,21.00
2024-01-26T20:39:58.631Z,17.83
2024-01-26T20:42:27.174Z,20.10
2024-01-26T20:44:54.416Z,19.67
2024-01-26T20:47:24.140Z,21.55
2024-01-26T20:49:50.939Z,23.73
2024-01-26T20:52:17.684Z,22.65
2024-01-26T20:54:44.355Z,22.67
2024-01-26T20:57:11.105Z,26.50
2024-01-26T20:59:38.114Z,20.02
2024-01-26T21:02:05.170Z,30.00
2024-01-26T21:04:32.141Z,16.70
2024-01-26T21:06:59.003Z,25.55
2024-01-26T21:09:26.001Z,22.00
2024-01-26T21:11:52.769Z,22.58
2024-01-26T21:14:19.510Z,25.88
2024-01-26T21:16:46.192Z,20.55
2024-01-26T21:19:12.971Z,21.77
2024-01-26T21:21:39.720Z,19.27
2024-01-26T21:24:07.788Z,22.00
2024-01-26T21:26:36.926Z,19.85
2024-01-26T21:29:04.667Z,22.75
2024-01-26T21:31:36.624Z,21.02
2024-01-26T21:34:04.501Z,25.70
2024-01-26T21:36:31.500Z,16.92
2024-01-26T21:38:58.293Z,21.75
2024-01-26T21:41:25.078Z,26.92
2024-01-26T21:43:57.261Z,22.88
2024-01-26T21:46:24.006Z,24.40
2024-01-26T21:48:50.785Z,26.67
2024-01-26T21:51:18.289Z,18.45
2024-01-26T21:53:45.287Z,15.60
2024-01-26T21:56:12.192Z,22.08
2024-01-26T21:58:39.967Z,28.23
2024-01-26T22:01:08.258Z,20.98
2024-01-26T22:03:35.091Z,22.55
2024-01-26T22:06:02.379Z,25.52
2024-01-26T22:08:29.278Z,22.98
2024-01-26T22:10:56.097Z,18.10
2024-01-26T22:13:22.754Z,23.35
2024-01-26T22:15:49.435Z,15.57
2024-01-26T22:18:19.635Z,23.92
2024-01-26T22:20:47.057Z,20.20
2024-01-26T22:23:13.825Z,14.47
2024-01-26T22:25:40.449Z,16.48
2024-01-26T22:28:07.063Z,21.02
2024-01-26T22:30:33.784Z,22.40
2024-01-26T22:33:00.554Z,17.85
2024-01-26T22:35:28.423Z,12.53
2024-01-26T22:37:55.059Z,20.95
2024-01-26T22:40:21.796Z,19.63
2024-01-26T22:42:48.432Z,16.50
2024-01-26T22:45:15.208Z,16.58
2024-01-26T22:47:41.981Z,19.27
2024-01-26T22:50:09.368Z,23.73
2024-01-26T22:52:36.087Z,18.42
2024-01-26T22:55:03.231Z,25.38
2024-01-26T22:57:32.211Z,18.70
2024-01-26T22:59:58.888Z,17.03
2024-01-26T23:02:26.189Z,21.48
2024-01-26T23:04:52.895Z,22.55
2024-01-26T23:07:20.713Z,15.63
2024-01-26T23:09:47.418Z,19.30
2024-01-26T23:12:14.163Z,21.67
2024-01-26T23:14:40.831Z,19.10
2024-01-26T23:17:07.499Z,26.77
2024-01-26T23:19:34.255Z,12.68
2024-01-26T23:22:01.018Z,11.68
2024-01-26T23:24:27.719Z,20.30
2024-01-26T23:26:54.591Z,18.83
2024-01-26T23:29:21.755Z,16.00
2024-01-26T23:31:48.510Z,16.38
2024-01-26T23:34:15.328Z,19.27
2024-01-26T23:36:42.264Z,20.30
2024-01-26T23:39:09.015Z,17.25
2024-01-26T23:41:35.737Z,20.63
2024-01-26T23:44:02.836Z,18.48
2024-01-26T23:46:29.528Z,18.00
2024-01-26T23:48:56.295Z,20.17
2024-01-26T23:51:23.100Z,19.20
2024-01-26T23:53:49.987Z,22.88
2024-01-26T23:56:16.806Z,12.00
2024-01-26T23:58:43.426Z,15.77
